createdAt,value
2023-04-26T00:02:30.088Z,97936.16
2023-04-26T00:05:04.051Z,97934.06
2023-04-26T00:07:38.055Z,97938.06
2023-04-26T00:10:12.126Z,97940.47
2023-04-26T00:12:46.418Z,97932.75
2023-04-26T00:15:19.440Z,97935.75
2023-04-26T00:17:52.946Z,97946.38
2023-04-26T00:20:25.927Z,97947.59
2023-04-26T00:22:58.882Z,97944.06
2023-04-26T00:25:31.843Z,97942.06
2023-04-26T00:28:06.427Z,97942.63
2023-04-26T00:30:42.135Z,97937.88
2023-04-26T00:33:15.096Z,97943.50
2023-04-26T00:35:48.071Z,97951.78
2023-04-26T00:38:21.042Z,97947.28
2023-04-26T00:40:53.971Z,97942.84
2023-04-26T00:43:28.287Z,97943.94
2023-04-26T00:46:01.336Z,97945.47
2023-04-26T00:48:35.104Z,97952.13
2023-04-26T00:51:08.280Z,97950.34
2023-04-26T00:53:41.413Z,97962.06
2023-04-26T00:56:14.648Z,97953.88
2023-04-26T00:58:49.080Z,97960.84
2023-04-26T01:01:22.333Z,97958.94
2023-04-26T01:03:55.535Z,97958.94
2023-04-26T01:06:34.328Z,97961.38
2023-04-26T01:09:09.468Z,97959.69
2023-04-26T01:11:44.701Z,97961.13
2023-04-26T01:14:19.260Z,97961.38
2023-04-26T01:16:52.488Z,97966.44
2023-04-26T01:19:25.624Z,97968.22
2023-04-26T01:21:58.753Z,97962.50
2023-04-26T01:24:36.701Z,97964.78
2023-04-26T01:27:09.768Z,97967.22
2023-04-26T01:29:42.794Z,97967.78
2023-04-26T01:32:15.820Z,97962.44
2023-04-26T01:34:48.900Z,97964.47
2023-04-26T01:37:21.869Z,97969.09
2023-04-26T01:39:56.318Z,97961.56
2023-04-26T01:42:29.431Z,97966.78
2023-04-26T01:45:02.653Z,97968.88
2023-04-26T01:47:35.792Z,97963.31
2023-04-26T01:50:11.890Z,97967.50
2023-04-26T01:52:44.859Z,97967.19
2023-04-26T01:55:19.235Z,97969.50
2023-04-26T01:57:52.217Z,97971.38
2023-04-26T02:00:25.295Z,97968.47
2023-04-26T02:02:58.991Z,97962.63
2023-04-26T02:05:32.022Z,97963.94
2023-04-26T02:08:06.131Z,97961.28
2023-04-26T02:10:40.526Z,97960.47
2023-04-26T02:13:13.521Z,97962.38
2023-04-26T02:15:48.344Z,97961.41
2023-04-26T02:18:22.500Z,97962.66
2023-04-26T02:20:55.476Z,97957.84
2023-04-26T02:23:28.560Z,97962.06
2023-04-26T02:26:03.226Z,97965.97
2023-04-26T02:28:36.716Z,97962.44
2023-04-26T02:31:09.828Z,97963.53
2023-04-26T02:33:42.848Z,97963.16
2023-04-26T02:36:15.873Z,97965.06
2023-04-26T02:38:48.814Z,97970.91
2023-04-26T02:41:23.461Z,97971.91
2023-04-26T02:43:56.399Z,97974.22
2023-04-26T02:46:29.427Z,97974.22
2023-04-26T02:49:02.426Z,97968.38
2023-04-26T02:51:35.499Z,97973.44
2023-04-26T02:54:08.469Z,97965.19
2023-04-26T02:56:42.807Z,97967.63
2023-04-26T02:59:15.813Z,97959.88
2023-04-26T03:01:48.824Z,97963.78
2023-04-26T03:04:21.903Z,97959.50
2023-04-26T03:06:54.891Z,97958.25
2023-04-26T03:09:27.984Z,97960.94
2023-04-26T03:12:03.251Z,97960.94
2023-04-26T03:14:37.058Z,97958.63
2023-04-26T03:17:10.076Z,97967.31
2023-04-26T03:19:43.108Z,97961.09
2023-04-26T03:22:17.924Z,97960.69
2023-04-26T03:24:50.956Z,97958.31
2023-04-26T03:27:25.326Z,97971.94
2023-04-26T03:29:58.537Z,97969.09
2023-04-26T03:32:31.733Z,97977.31
2023-04-26T03:35:05.143Z,97982.09
2023-04-26T03:37:39.735Z,97977.81
2023-04-26T03:40:13.880Z,97975.75
2023-04-26T03:42:48.305Z,97972.22
2023-04-26T03:45:21.470Z,97976.53
2023-04-26T03:47:54.549Z,97979.06
2023-04-26T03:50:27.679Z,97980.81
2023-04-26T03:53:00.689Z,97982.63
2023-04-26T03:55:33.678Z,97988.47
2023-04-26T03:58:08.740Z,97985.81
2023-04-26T04:00:42.214Z,97980.34
2023-04-26T04:03:15.703Z,97981.81
2023-04-26T04:05:48.841Z,97980.81
2023-04-26T04:08:21.846Z,97990.47
2023-04-26T04:10:54.878Z,97990.78
2023-04-26T04:13:29.414Z,97989.28
2023-04-26T04:16:02.460Z,97990.94
2023-04-26T04:18:35.620Z,97994.53
2023-04-26T04:21:08.621Z,97988.19
2023-04-26T04:23:42.235Z,97990.44
2023-04-26T04:26:15.285Z,97987.50
2023-04-26T04:28:49.830Z,97985.00
2023-04-26T04:31:23.211Z,97988.81
2023-04-26T04:33:56.303Z,97994.50
2023-04-26T04:36:29.331Z,97993.25
2023-04-26T04:39:03.286Z,97997.00
2023-04-26T04:41:36.914Z,97991.19
2023-04-26T04:44:11.250Z,97990.81
2023-04-26T04:46:44.541Z,97990.81
2023-04-26T04:49:19.228Z,97993.19
2023-04-26T04:51:53.103Z,97994.84
2023-04-26T04:54:26.100Z,97993.81
2023-04-26T04:56:59.153Z,97996.34
2023-04-26T04:59:33.515Z,98000.16
2023-04-26T05:02:06.748Z,98000.53
2023-04-26T05:04:40.000Z,97996.91
2023-04-26T05:07:15.531Z,98000.69
2023-04-26T05:09:48.545Z,98009.19
2023-04-26T05:12:21.808Z,98004.25
2023-04-26T05:14:56.210Z,98007.63
2023-04-26T05:17:30.923Z,98017.53
2023-04-26T05:20:07.890Z,98018.81
2023-04-26T05:22:41.333Z,98027.16
2023-04-26T05:25:14.669Z,98029.84
2023-04-26T05:27:47.651Z,98025.00
2023-04-26T05:30:22.109Z,98037.97
2023-04-26T05:32:56.826Z,98037.59
2023-04-26T05:35:29.868Z,98037.16
2023-04-26T05:38:02.880Z,98044.66
2023-04-26T05:40:35.916Z,98043.13
2023-04-26T05:43:08.963Z,98045.66
2023-04-26T05:45:52.393Z,98042.81
2023-04-26T05:48:26.245Z,98048.53
2023-04-26T05:50:59.342Z,98053.06
2023-04-26T05:53:33.713Z,98049.25
2023-04-26T05:56:07.133Z,98052.53
2023-04-26T05:58:40.137Z,98052.72
2023-04-26T06:01:14.832Z,98050.59
2023-04-26T06:03:48.310Z,98057.69
2023-04-26T06:06:21.539Z,98056.50
2023-04-26T06:08:54.543Z,98058.19
2023-04-26T06:11:27.744Z,98052.84
2023-04-26T06:14:00.756Z,98058.97
2023-04-26T06:16:35.171Z,98060.47
2023-04-26T06:19:08.164Z,98055.00
2023-04-26T06:21:41.181Z,98064.84
2023-04-26T06:24:14.151Z,98064.53
2023-04-26T06:26:47.287Z,98056.03
2023-04-26T06:29:21.241Z,98065.03
2023-04-26T06:31:55.742Z,98059.69
2023-04-26T06:34:28.778Z,98060.41
2023-04-26T06:37:01.883Z,98060.97
2023-04-26T06:39:34.930Z,98064.78
2023-04-26T06:42:08.070Z,98065.72
2023-04-26T06:44:41.079Z,98064.75
2023-04-26T06:47:15.419Z,98072.47
2023-04-26T06:49:48.446Z,98072.63
2023-04-26T06:52:21.756Z,98073.69
2023-04-26T06:54:57.591Z,98084.63
2023-04-26T06:57:30.918Z,98073.69
2023-04-26T07:00:06.204Z,98075.47
2023-04-26T07:02:41.280Z,98075.94
2023-04-26T07:05:15.305Z,98069.28
2023-04-26T07:07:49.609Z,98066.97
2023-04-26T07:10:23.045Z,98065.72
2023-04-26T07:12:56.069Z,98057.19
2023-04-26T07:15:29.726Z,98053.19
2023-04-26T07:18:04.164Z,98063.44
2023-04-26T07:20:37.254Z,98056.19
2023-04-26T07:23:10.235Z,98054.53
2023-04-26T07:25:43.224Z,98048.72
2023-04-26T07:28:16.252Z,98042.34
2023-04-26T07:30:49.303Z,98032.78
2023-04-26T07:33:23.766Z,98037.56
2023-04-26T07:35:58.734Z,98041.44
2023-04-26T07:38:31.929Z,98036.00
2023-04-26T07:41:05.559Z,98033.84
2023-04-26T07:43:39.429Z,98024.59
2023-04-26T07:46:12.507Z,98036.41
2023-04-26T07:48:46.851Z,98024.13
2023-04-26T07:51:20.106Z,98026.84
2023-04-26T07:53:53.319Z,98028.25
2023-04-26T07:56:26.551Z,98026.31
2023-04-26T07:58:59.514Z,98037.56
2023-04-26T08:01:32.539Z,98036.16
2023-04-26T08:04:07.390Z,98036.59
2023-04-26T08:06:44.911Z,98026.38
2023-04-26T08:09:18.981Z,98036.56
2023-04-26T08:11:52.020Z,98027.41
2023-04-26T08:14:25.036Z,98031.56
2023-04-26T08:16:58.140Z,98035.88
2023-04-26T08:19:33.439Z,98031.81
2023-04-26T08:22:06.618Z,98031.47
2023-04-26T08:24:39.662Z,98019.66
2023-04-26T08:27:12.752Z,98027.31
2023-04-26T08:29:46.034Z,98029.00
2023-04-26T08:32:19.056Z,98037.00
2023-04-26T08:34:53.400Z,98033.31
2023-04-26T08:37:28.020Z,98027.31
2023-04-26T08:40:02.281Z,98020.25
2023-04-26T08:42:40.439Z,98025.84
2023-04-26T08:45:13.445Z,98025.09
2023-04-26T08:47:50.249Z,98027.97
2023-04-26T08:50:25.237Z,98032.94
2023-04-26T08:52:58.281Z,98025.94
2023-04-26T08:55:31.649Z,98026.28
2023-04-26T08:58:06.876Z,98032.38
2023-04-26T09:00:39.968Z,98026.81
2023-04-26T09:03:13.539Z,98024.16
2023-04-26T09:05:48.241Z,98026.53
2023-04-26T09:08:22.065Z,98031.72
2023-04-26T09:10:55.031Z,98023.91
2023-04-26T09:13:30.431Z,98025.34
2023-04-26T09:16:05.024Z,98026.59
2023-04-26T09:18:51.878Z,98026.13
2023-04-26T09:21:26.518Z,98029.28
2023-04-26T09:24:01.703Z,98021.13
2023-04-26T09:26:34.720Z,98025.66
2023-04-26T09:29:16.283Z,98023.09
2023-04-26T09:31:50.802Z,98015.72
2023-04-26T09:34:23.895Z,98010.44
2023-04-26T09:36:58.722Z,98016.88
2023-04-26T09:39:33.909Z,98007.94
2023-04-26T09:42:07.897Z,98001.97
2023-04-26T09:44:41.247Z,97999.88
2023-04-26T09:47:14.271Z,98000.09
2023-04-26T09:49:50.501Z,98003.44
2023-04-26T09:52:24.892Z,97997.81
2023-04-26T09:54:57.942Z,97997.41
2023-04-26T09:57:31.349Z,98001.78
2023-04-26T10:00:12.355Z,97997.53
2023-04-26T10:02:45.584Z,97993.53
2023-04-26T10:05:18.998Z,97989.28
2023-04-26T10:07:53.423Z,97990.94
2023-04-26T10:10:27.204Z,97991.91
2023-04-26T10:13:00.958Z,97986.19
2023-04-26T10:15:34.107Z,97992.38
2023-04-26T10:18:07.306Z,97985.91
2023-04-26T10:20:42.932Z,97983.22
2023-04-26T10:23:22.062Z,97984.84
2023-04-26T10:25:56.479Z,97988.75
2023-04-26T10:29:01.710Z,97986.38
2023-04-26T10:32:08.795Z,97990.09
2023-04-26T10:34:41.907Z,97986.06
2023-04-26T10:37:16.411Z,97981.72
2023-04-26T10:39:50.838Z,97974.41
2023-04-26T10:42:27.404Z,97979.88
2023-04-26T10:45:02.773Z,97972.25
2023-04-26T10:47:37.374Z,97980.06
2023-04-26T10:50:12.542Z,97977.91
2023-04-26T10:53:06.795Z,97978.88
2023-04-26T10:55:42.666Z,97972.34
2023-04-26T10:58:29.704Z,97977.56
2023-04-26T11:01:07.156Z,97976.53
2023-04-26T11:03:42.393Z,97975.78
2023-04-26T11:06:18.207Z,97972.41
2023-04-26T11:08:51.964Z,97966.66
2023-04-26T11:11:29.804Z,97972.91
2023-04-26T11:14:03.875Z,97962.16
2023-04-26T11:16:37.203Z,97960.41
2023-04-26T11:19:11.185Z,97959.06
2023-04-26T11:21:44.217Z,97954.44
2023-04-26T11:24:17.749Z,97949.16
2023-04-26T11:26:54.225Z,97936.91
2023-04-26T11:29:27.368Z,97932.31
2023-04-26T11:32:00.396Z,97936.41
2023-04-26T11:34:34.350Z,97939.09
2023-04-26T11:37:08.474Z,97937.91
2023-04-26T11:39:41.573Z,97932.22
2023-04-26T11:42:15.977Z,97930.81
2023-04-26T11:44:52.603Z,97926.16
2023-04-26T11:47:26.176Z,97919.06
2023-04-26T11:49:59.406Z,97921.34
2023-04-26T11:52:32.631Z,97919.03
2023-04-26T11:55:07.682Z,97915.22
2023-04-26T11:57:42.149Z,97912.97
2023-04-26T12:00:16.772Z,97913.78
2023-04-26T12:02:52.249Z,97915.22
2023-04-26T12:05:28.228Z,97908.81
2023-04-26T12:08:02.128Z,97901.81
2023-04-26T12:10:37.472Z,97892.38
2023-04-26T12:13:15.267Z,97896.25
2023-04-26T12:15:50.428Z,97892.63
2023-04-26T12:18:23.663Z,97901.84
2023-04-26T12:21:00.055Z,97900.22
2023-04-26T12:23:41.752Z,97899.22
2023-04-26T12:26:15.377Z,97883.28
2023-04-26T12:28:49.764Z,97886.88
2023-04-26T12:31:23.845Z,97883.81
2023-04-26T12:33:56.945Z,97887.13
2023-04-26T12:36:29.936Z,97883.09
2023-04-26T12:39:05.273Z,97881.28
2023-04-26T12:41:38.342Z,97880.97
2023-04-26T12:44:14.295Z,97875.94
2023-04-26T12:46:47.623Z,97876.38
2023-04-26T12:49:21.096Z,97875.81
2023-04-26T12:51:54.104Z,97870.63
2023-04-26T12:54:27.332Z,97870.75
2023-04-26T12:57:00.386Z,97867.81
2023-04-26T12:59:34.716Z,97872.44
2023-04-26T13:02:10.176Z,97870.00
2023-04-26T13:04:43.541Z,97869.31
2023-04-26T13:07:17.303Z,97864.00
2023-04-26T13:09:50.437Z,97868.63
2023-04-26T13:12:23.523Z,97864.47
2023-04-26T13:14:57.889Z,97867.16
2023-04-26T13:17:31.730Z,97870.41
2023-04-26T13:20:06.950Z,97873.06
2023-04-26T13:22:42.389Z,97875.56
2023-04-26T13:25:17.988Z,97875.03
2023-04-26T13:27:53.461Z,97874.41
2023-04-26T13:30:27.872Z,97867.06
2023-04-26T13:33:01.091Z,97857.28
2023-04-26T13:35:34.177Z,97851.66
2023-04-26T13:38:07.184Z,97853.91
2023-04-26T13:40:40.244Z,97850.81
2023-04-26T13:43:13.263Z,97842.59
2023-04-26T13:45:47.559Z,97849.59
2023-04-26T13:48:20.755Z,97850.81
2023-04-26T13:50:53.762Z,97861.22
2023-04-26T13:53:27.098Z,97864.47
2023-04-26T13:56:00.031Z,97853.63
2023-04-26T13:58:33.035Z,97853.38
2023-04-26T14:01:07.378Z,97851.31
2023-04-26T14:03:40.975Z,97850.78
2023-04-26T14:06:14.170Z,97845.91
2023-04-26T14:08:47.106Z,97849.69
2023-04-26T14:11:20.104Z,97852.47
2023-04-26T14:13:55.928Z,97842.31
2023-04-26T14:16:30.401Z,97848.72
2023-04-26T14:19:03.670Z,97846.69
2023-04-26T14:21:36.745Z,97844.66
2023-04-26T14:24:11.161Z,97840.75
2023-04-26T14:26:44.127Z,97847.09
2023-04-26T14:29:17.180Z,97844.09
2023-04-26T14:31:51.511Z,97837.25
2023-04-26T14:34:24.541Z,97843.03
2023-04-26T14:37:01.513Z,97844.28
2023-04-26T14:39:34.866Z,97837.16
2023-04-26T14:42:07.945Z,97834.16
2023-04-26T14:44:41.428Z,97829.34
2023-04-26T14:47:15.939Z,97819.56
2023-04-26T14:49:48.998Z,97822.41
2023-04-26T14:52:26.814Z,97823.59
2023-04-26T14:54:59.773Z,97818.19
2023-04-26T14:57:32.968Z,97820.31
2023-04-26T15:00:09.135Z,97825.81
2023-04-26T15:02:43.945Z,97821.94
2023-04-26T15:05:17.762Z,97824.19
2023-04-26T15:07:50.856Z,97819.19
2023-04-26T15:10:23.805Z,97827.72
2023-04-26T15:12:57.134Z,97822.56
2023-04-26T15:15:30.148Z,97820.81
2023-04-26T15:18:04.915Z,97820.34
2023-04-26T15:20:41.136Z,97826.44
2023-04-26T15:23:14.664Z,97820.44
2023-04-26T15:25:48.166Z,97820.81
2023-04-26T15:28:21.524Z,97819.44
2023-04-26T15:31:03.170Z,97826.06
2023-04-26T15:33:37.764Z,97817.66
2023-04-26T15:36:11.110Z,97820.78
2023-04-26T15:38:45.299Z,97820.78
2023-04-26T15:41:18.379Z,97815.53
2023-04-26T15:43:55.080Z,97815.91
2023-04-26T15:46:28.165Z,97806.97
2023-04-26T15:49:02.517Z,97805.38
2023-04-26T15:51:35.859Z,97806.22
2023-04-26T15:54:08.925Z,97812.09
2023-04-26T15:56:42.316Z,97809.19
2023-04-26T15:59:15.690Z,97812.75
2023-04-26T16:01:48.780Z,97813.56
2023-04-26T16:04:23.373Z,97816.50
2023-04-26T16:06:56.593Z,97810.06
2023-04-26T16:09:30.573Z,97813.56
2023-04-26T16:12:05.548Z,97808.47
2023-04-26T16:14:38.667Z,97812.69
2023-04-26T16:17:11.638Z,97803.78
2023-04-26T16:19:45.972Z,97804.16
2023-04-26T16:22:18.945Z,97799.03
2023-04-26T16:24:51.883Z,97804.72
2023-04-26T16:27:24.978Z,97810.38
2023-04-26T16:29:58.316Z,97816.59
2023-04-26T16:32:31.804Z,97809.50
2023-04-26T16:35:08.778Z,97809.97
2023-04-26T16:37:41.867Z,97817.25
2023-04-26T16:40:15.349Z,97815.16
2023-04-26T16:42:48.304Z,97816.81
2023-04-26T16:45:21.874Z,97809.75
2023-04-26T16:47:54.881Z,97818.94
2023-04-26T16:50:29.342Z,97814.63
2023-04-26T16:53:02.309Z,97814.47
2023-04-26T16:55:35.266Z,97813.69
2023-04-26T16:58:09.232Z,97809.97
2023-04-26T17:00:44.570Z,97821.69
2023-04-26T17:03:18.180Z,97819.78
2023-04-26T17:05:52.705Z,97823.00
2023-04-26T17:08:27.134Z,97828.84
2023-04-26T17:11:00.140Z,97823.03
2023-04-26T17:13:33.637Z,97822.91
2023-04-26T17:16:09.461Z,97823.56
2023-04-26T17:18:42.732Z,97827.25
2023-04-26T17:21:17.030Z,97827.97
2023-04-26T17:23:49.971Z,97825.00
2023-04-26T17:26:22.942Z,97824.88
2023-04-26T17:28:56.335Z,97821.28
2023-04-26T17:31:29.565Z,97824.56
2023-04-26T17:34:04.754Z,97831.44
2023-04-26T17:36:39.343Z,97834.66
2023-04-26T17:39:12.523Z,97834.66
2023-04-26T17:41:45.498Z,97839.63
2023-04-26T17:44:18.745Z,97842.19
2023-04-26T17:46:51.675Z,97844.75
2023-04-26T17:49:25.753Z,97848.06
2023-04-26T17:52:00.157Z,97844.47
2023-04-26T17:54:33.257Z,97845.03
2023-04-26T17:57:07.708Z,97846.63
2023-04-26T17:59:40.674Z,97846.38
2023-04-26T18:02:13.770Z,97849.50
2023-04-26T18:04:47.530Z,97850.81
2023-04-26T18:07:22.206Z,97853.13
2023-04-26T18:09:55.131Z,97858.78
2023-04-26T18:12:30.650Z,97863.44
2023-04-26T18:15:03.699Z,97865.66
2023-04-26T18:17:36.886Z,97869.50
2023-04-26T18:20:11.225Z,97870.94
2023-04-26T18:22:45.555Z,97870.59
2023-04-26T18:25:18.670Z,97875.41
2023-04-26T18:27:51.747Z,97886.19
2023-04-26T18:30:24.716Z,97881.50
2023-04-26T18:32:57.690Z,97890.59
2023-04-26T18:35:31.014Z,97879.09
2023-04-26T18:38:05.493Z,97885.47
2023-04-26T18:40:38.459Z,97890.31
2023-04-26T18:43:11.949Z,97895.97
2023-04-26T18:45:45.133Z,97886.38
2023-04-26T18:48:18.078Z,97904.16
2023-04-26T18:50:51.859Z,97904.09
2023-04-26T18:53:26.311Z,97898.63
2023-04-26T18:55:59.323Z,97904.28
2023-04-26T18:58:32.368Z,97914.31
2023-04-26T19:01:05.415Z,97910.53
2023-04-26T19:03:38.572Z,97917.22
2023-04-26T19:06:15.097Z,97919.44
2023-04-26T19:08:49.442Z,97918.28
2023-04-26T19:11:22.469Z,97924.19
2023-04-26T19:13:55.508Z,97929.31
2023-04-26T19:16:28.510Z,97941.19
2023-04-26T19:19:01.608Z,97935.56
2023-04-26T19:21:35.084Z,97939.47
2023-04-26T19:24:09.843Z,97942.06
2023-04-26T19:26:43.053Z,97939.50
2023-04-26T19:29:16.105Z,97945.22
2023-04-26T19:31:49.129Z,97952.09
2023-04-26T19:34:22.777Z,97959.13
2023-04-26T19:36:55.966Z,97960.75
2023-04-26T19:39:30.529Z,97956.16
2023-04-26T19:42:03.608Z,97960.38
2023-04-26T19:44:36.584Z,97960.97
2023-04-26T19:47:09.663Z,97963.50
2023-04-26T19:49:42.663Z,97966.69
2023-04-26T19:52:15.625Z,97959.78
2023-04-26T19:54:49.962Z,97966.00
2023-04-26T19:57:23.305Z,97965.91
2023-04-26T19:59:56.424Z,97971.00
2023-04-26T20:02:29.621Z,97977.91
2023-04-26T20:05:03.014Z,97980.53
2023-04-26T20:07:36.135Z,97985.56
2023-04-26T20:10:11.431Z,97984.56
2023-04-26T20:13:00.457Z,97987.31
2023-04-26T20:15:34.059Z,97989.88
2023-04-26T20:18:07.401Z,97984.94
2023-04-26T20:20:40.420Z,97995.66
2023-04-26T20:23:13.365Z,97989.91
2023-04-26T20:25:47.719Z,97987.34
2023-04-26T20:28:20.893Z,97987.84
2023-04-26T20:30:54.147Z,97985.38
2023-04-26T20:33:27.206Z,97987.88
2023-04-26T20:36:00.211Z,97991.59
2023-04-26T20:38:33.439Z,97991.22
2023-04-26T20:41:07.748Z,97990.53
2023-04-26T20:43:40.954Z,97990.13
2023-04-26T20:46:14.039Z,97983.25
2023-04-26T20:48:47.139Z,97983.25
2023-04-26T20:51:20.136Z,97987.19
2023-04-26T20:53:53.076Z,97982.00
2023-04-26T20:56:27.417Z,97984.03
2023-04-26T20:59:00.539Z,97988.06
2023-04-26T21:01:34.082Z,97978.75
2023-04-26T21:04:07.230Z,97985.97
2023-04-26T21:06:40.568Z,97985.19
2023-04-26T21:09:13.583Z,97993.63
2023-04-26T21:11:47.880Z,97979.88
2023-04-26T21:14:20.998Z,97983.50
2023-04-26T21:16:53.949Z,97984.50
2023-04-26T21:19:26.942Z,97980.19
2023-04-26T21:21:59.894Z,97985.19
2023-04-26T21:24:32.805Z,97984.50
2023-04-26T21:27:07.116Z,97982.75
2023-04-26T21:29:40.109Z,97989.28
2023-04-26T21:32:13.221Z,97994.09
2023-04-26T21:34:46.207Z,97989.88
2023-04-26T21:37:19.191Z,97989.88
2023-04-26T21:39:52.127Z,97986.25
2023-04-26T21:42:26.412Z,97991.03
2023-04-26T21:44:59.614Z,97991.97
2023-04-26T21:47:33.190Z,97988.34
2023-04-26T21:50:07.514Z,97996.69
2023-04-26T21:52:40.504Z,97988.72
2023-04-26T21:55:13.422Z,97991.84
2023-04-26T21:57:47.725Z,98001.56
2023-04-26T22:00:21.098Z,98004.13
2023-04-26T22:02:54.181Z,98008.22
2023-04-26T22:05:27.247Z,97999.81
2023-04-26T22:08:00.255Z,97996.47
2023-04-26T22:10:33.269Z,98001.56
2023-04-26T22:13:07.592Z,98009.69
2023-04-26T22:15:41.073Z,98000.50
2023-04-26T22:18:14.045Z,98012.56
2023-04-26T22:20:47.085Z,98009.31
2023-04-26T22:23:20.062Z,98007.00
2023-04-26T22:25:53.191Z,98008.88
2023-04-26T22:28:27.767Z,98008.59
2023-04-26T22:31:00.825Z,98002.72
2023-04-26T22:33:33.790Z,98010.47
2023-04-26T22:36:07.496Z,98016.22
2023-04-26T22:38:40.778Z,98006.69
2023-04-26T22:41:13.790Z,98009.78
2023-04-26T22:43:48.060Z,98005.59
2023-04-26T22:46:21.073Z,98010.91
2023-04-26T22:48:54.198Z,98006.75
2023-04-26T22:51:27.188Z,97999.91
2023-04-26T22:54:01.289Z,98001.94
2023-04-26T22:56:34.296Z,98007.25
2023-04-26T22:59:08.626Z,98003.31
2023-04-26T23:01:41.736Z,98008.16
2023-04-26T23:04:14.846Z,98006.41
2023-04-26T23:06:47.901Z,98009.06
2023-04-26T23:09:20.960Z,98012.63
2023-04-26T23:11:53.968Z,98010.97
2023-04-26T23:14:29.636Z,98015.38
2023-04-26T23:17:02.717Z,98023.97
2023-04-26T23:19:36.515Z,98025.19
2023-04-26T23:22:09.649Z,98024.72
2023-04-26T23:24:42.679Z,98030.69
2023-04-26T23:27:15.719Z,98023.94
2023-04-26T23:29:51.387Z,98029.28
2023-04-26T23:32:24.460Z,98027.19
2023-04-26T23:34:57.429Z,98030.66
2023-04-26T23:37:30.429Z,98028.31
2023-04-26T23:40:05.698Z,98027.97
2023-04-26T23:42:38.711Z,98021.69
2023-04-26T23:45:13.357Z,98021.81
2023-04-26T23:47:46.472Z,98022.69
2023-04-26T23:50:19.491Z,98026.34
2023-04-26T23:52:52.519Z,98024.00
2023-04-26T23:55:25.583Z,98019.38
2023-04-26T23:57:58.545Z,98023.25
